Nabulus, West Bank
Current Conditions -  °F | °C
As of 11:20 AM on Thursday 27 Nov 2014 (Local Time) from LLBG Reporting Station
Broken Clouds Broken Clouds  
Wind Chill: 57°   Ceiling: 5000
Heat Index: 57°   Visibility: 6mi
Dew Point: 54°   Wind: 14mph
Humidity: 88%   Direction: 180°S
Pressure: 30.03"   Gusts: NA
Location:  32.23°N, 35.27°E
Report Text: LLBG 270820Z 18012KT 9999 FEW030 BKN050 14/12 Q1017 NOSIG
Loading
Personal Weather Stations






























Interactive Weather Map New forecast layout! Learn more

10-Day Weather Forecast

Advertisements
Track Severe Weather on mobile